• Join FlightAware (Why Join?)
  • Login
  • US Flag 
01:15AM EDT


 

Airport Tracker/Info


-or-


 

Live Flight TrackerFlight Track Log ✈ FSR411 ✈ 07-May-2014 ✈ KSPI - KSTP

Flight Track Log - Related Links

Times and Time Zones

All times are in EDT time to prevent confusion due to time zone crossing. See the FSR411 flight status page for this flight to view local times or setup timezone preferences in your user account.

Time Position Orientation Groundspeed Altitude Reporting Facility
EDT Latitude Longitude Course Direction KTS MPH feet Rate Location/Type
11:41AM 39.8258 -89.7189 311° West 185 213 3,000  Level Chicago Center
11:42AM 39.8539 -89.7831 300° West 258 297 6,600 3,660 Climbing Chicago Center
11:43AM 39.8894 -89.8189 322° Northwest 254 292 8,700 3,780 Climbing Kansas City Center
11:44AM 39.9556 -89.8867 322° Northwest 286 329 12,600 3,660 Climbing Kansas City Center
11:45AM 40.0347 -89.9675 322° Northwest 341 392 16,300 3,720 Climbing Kansas City Center
11:46AM 40.1181 -90.0553 321° Northwest 375 432 20,400 3,180 Climbing Kansas City Center
11:47AM 40.2039 -90.1444 322° Northwest 385 443 23,000 1,980 Climbing Kansas City Center
11:48AM 40.0678 -89.9017 311° West  Level FlightAware Approximate
11:48AM 40.2956 -90.2383 322° Northwest 403 464 24,500  Level Kansas City Center
11:49AM 40.3903 -90.3378 321° Northwest 423 487 27,400 2,700 Climbing Kansas City Center
11:50AM 40.5025 -90.4572 321° Northwest 426 490 30,200 2,340 Climbing Kansas City Center
11:51AM 40.5983 -90.5569 322° Northwest 432 497 32,400 1,800 Climbing Kansas City Center
11:52AM 40.6919 -90.6558 321° Northwest 432 497 34,000 720 Climbing Kansas City Center
11:53AM 40.7875 -90.7583 321° Northwest 436 502 34,000 60 Level Kansas City Center
11:54AM 40.8828 -90.8592 321° Northwest 436 502 34,200 900 Climbing Kansas City Center
11:55AM 40.9789 -90.9611 321° Northwest 437 503 35,900 720 Climbing Kansas City Center
11:57AM 41.1319 -91.1269 321° Northwest 440 506 36,000  Climbing Chicago Center
11:58AM 41.2300 -91.2331 321° Northwest 448 516 36,000  Level Chicago Center
11:59AM 41.3300 -91.3411 321° Northwest 447 514 36,000  Level Chicago Center
12:00PM 41.4256 -91.4447 321° Northwest 446 513 36,000  Level Chicago Center
12:01PM 41.5219 -91.5503 321° Northwest 446 513 36,000  Level Chicago Center
12:02PM 41.6167 -91.6544 321° Northwest 446 513 36,000  Level Chicago Center
12:03PM 41.7117 -91.7594 320° Northwest 445 512 36,000  Level Chicago Center
12:04PM 41.8069 -91.8644 321° Northwest 445 512 36,000 -60 Level Chicago Center
12:05PM 41.9214 -91.9903 321° Northwest 445 512 35,900 -600 Descending Chicago Center
12:06PM 42.0164 -92.0958 320° Northwest 445 512 34,800 -1,140 Descending Chicago Center
12:07PM 42.1094 -92.2003 320° Northwest 440 506 33,600 -1,200 Descending Chicago Center
12:08PM 42.2025 -92.3053 320° Northwest 438 504 32,400 -780 Descending Chicago Center
12:09PM 42.2983 -92.4125 320° Northwest 442 509 32,000 -240 Descending Chicago Center
12:10PM 42.3961 -92.5228 320° Northwest 454 522 32,000  Level Chicago Center
12:11PM 42.4922 -92.6319 320° Northwest 454 522 32,000  Level Chicago Center
12:12PM 42.6072 -92.7633 320° Northwest 453 521 32,000  Level Chicago Center
12:13PM 42.7028 -92.8742 320° Northwest 451 519 32,000  Level Chicago Center
12:14PM 42.7975 -92.9847 319° Northwest 451 519 32,000 -60 Level Chicago Center
12:15PM 42.8942 -93.0908 321° Northwest 449 517 31,900 -780 Descending Chicago Center
12:16PM 43.0150 -93.1531 339° North 461 531 30,500 -1,620 Descending Chicago Center
12:17PM 43.1397 -93.2114 341° North 467 537 28,600 -2,280 Descending Chicago Center
12:18PM 43.2886 -93.2833 341° North 473 544 25,900 -2,640 Descending Chicago Center
12:20PM 43.4100 -93.3425 341° North 470 541 23,300 -2,460 Descending Chicago Center
12:21PM 43.5258 -93.3850 345° North 451 519 20,900 -2,520 Descending Chicago Center
12:22PM 43.7014 -93.3972 357° North 445 512 17,200 -2,460 Descending Minneapolis Center
12:23PM 43.8142 -93.4117 355° North 423 487 14,900 -2,280 Descending Minneapolis Center
12:24PM 43.9239 -93.4236 356° North 401 461 12,600 -2,220 Descending Minneapolis Center
12:25PM 44.0467 -93.4386 355° North 367 422 10,400 -1,800 Descending Minneapolis Center
12:26PM 44.1369 -93.4506 355° North 319 367 9,000 -1,200 Descending Minneapolis Center
12:27PM 44.2244 -93.4606 355° North 316 364 8,000 -540 Descending Minneapolis Center
12:28PM 44.3181 -93.4661 358° North 316 364 8,000  Level Minneapolis Center
12:29PM 44.4053 -93.4842 352° North 316 364 8,000 -600 Level Minneapolis Center
12:30PM 44.4906 -93.5036 351° North 313 360 6,800 -1,260 Descending Minneapolis Center
12:31PM 44.5786 -93.5236 351° North 302 348 5,400 -1,320 Descending Minneapolis Center
12:32PM 44.6572 -93.5214 North 284 327 4,100 -720 Descending Minneapolis Center
12:33PM 44.7281 -93.4972 14° North 266 306 4,000 -60 Descending Minneapolis Center
12:34PM 44.7894 -93.4364 35° Northeast 254 292 4,000  Level Minneapolis Center
12:35PM 44.8319 -93.3644 50° Northeast 241 277 4,000  Level Minneapolis Center
12:36PM 44.8750 -93.2944 49° Northeast 240 276 4,000  Level Minneapolis Center
12:37PM 44.9214 -93.2258 46° Northeast 225 259 4,000 -540 Level Minneapolis Center
12:38PM 44.9592 -93.1644 49° Northeast 212 244 3,000 -1,020 Descending Minneapolis Center
12:39PM 44.9689 -93.1111 76° East 143 165 2,000 -1,020 Descending Minneapolis Center
12:41PM 44.9478 -93.0717 127° Southeast 124 143 1,000 -1,020 Descending Minneapolis Center